createdAt,value
2023-02-03T00:01:43.197Z,56.46
2023-02-03T00:06:51.600Z,56.19
2023-02-03T00:11:59.969Z,61.73
2023-02-03T00:17:08.557Z,41.62
2023-02-03T00:22:16.797Z,31.99
2023-02-03T00:27:25.567Z,28.17
2023-02-03T00:32:33.761Z,21.71
2023-02-03T00:37:42.343Z,18.81
2023-02-03T00:42:50.763Z,12.87
2023-02-03T00:47:59.621Z,11.00
2023-02-03T00:53:07.807Z,10.20
2023-02-03T00:58:16.423Z,9.67
2023-02-03T01:03:24.961Z,12.08
2023-02-03T01:08:33.470Z,15.53
2023-02-03T01:13:41.501Z,17.75
2023-02-03T01:18:49.956Z,17.57
2023-02-03T01:23:58.030Z,13.45
2023-02-03T01:29:06.458Z,10.68
2023-02-03T01:34:15.117Z,9.13
2023-02-03T01:39:23.732Z,8.52
2023-02-03T01:44:32.017Z,10.09
2023-02-03T01:49:40.680Z,8.39
2023-02-03T01:54:49.169Z,10.10
2023-02-03T01:59:57.805Z,10.78
2023-02-03T02:05:05.937Z,11.41
2023-02-03T02:10:14.384Z,14.45
2023-02-03T02:15:22.840Z,11.64
2023-02-03T02:20:31.444Z,9.47
2023-02-03T02:25:39.776Z,8.32
2023-02-03T02:30:48.354Z,7.69
2023-02-03T02:35:56.529Z,6.88
2023-02-03T02:41:05.025Z,4.68
2023-02-03T02:46:13.363Z,5.65
2023-02-03T02:51:22.113Z,5.20
2023-02-03T02:56:30.645Z,4.56
2023-02-03T03:01:39.330Z,5.33
2023-02-03T03:06:47.864Z,5.86
2023-02-03T03:11:57.136Z,5.54
2023-02-03T03:17:05.400Z,6.37
2023-02-03T03:22:14.194Z,9.61
2023-02-03T03:27:22.438Z,5.89
2023-02-03T03:32:31.056Z,5.25
2023-02-03T03:37:39.332Z,4.82
2023-02-03T03:42:47.925Z,9.06
2023-02-03T03:47:56.386Z,8.73
2023-02-03T03:53:05.110Z,12.19
2023-02-03T03:58:13.531Z,12.17
2023-02-03T04:03:22.032Z,11.78
2023-02-03T04:08:30.144Z,13.49
2023-02-03T04:13:39.097Z,12.00
2023-02-03T04:18:47.482Z,14.13
2023-02-03T04:23:56.065Z,15.06
2023-02-03T04:29:04.169Z,12.80
2023-02-03T04:34:13.109Z,10.57
2023-02-03T04:39:21.433Z,12.74
2023-02-03T04:44:30.271Z,11.48
2023-02-03T04:49:38.784Z,13.33
2023-02-03T04:54:47.693Z,12.74
2023-02-03T04:59:55.987Z,15.79
2023-02-03T05:05:04.703Z,13.56
2023-02-03T05:10:13.177Z,14.74
2023-02-03T05:15:22.067Z,11.88
2023-02-03T05:20:30.550Z,13.85
2023-02-03T05:25:39.081Z,15.12
2023-02-03T05:30:47.402Z,14.29
2023-02-03T05:35:56.323Z,19.84
2023-02-03T05:41:04.773Z,18.59
2023-02-03T05:46:15.034Z,16.55
2023-02-03T05:51:13.215Z,14.39
2023-02-03T05:56:21.788Z,13.55
2023-02-03T06:01:30.202Z,14.26
2023-02-03T06:06:39.244Z,12.81
2023-02-03T06:11:47.524Z,13.73
2023-02-03T06:16:56.422Z,9.87
2023-02-03T06:22:04.798Z,9.39
2023-02-03T06:27:13.825Z,8.72
2023-02-03T06:32:22.019Z,9.12
2023-02-03T06:37:30.470Z,9.19
2023-02-03T06:42:38.984Z,8.53
2023-02-03T06:47:47.778Z,8.47
2023-02-03T06:52:56.045Z,9.38
2023-02-03T06:58:04.935Z,8.41
2023-02-03T07:03:13.391Z,6.66
2023-02-03T07:08:22.447Z,5.86
2023-02-03T07:13:31.698Z,5.39
2023-02-03T07:18:47.296Z,5.61
2023-02-03T07:23:49.198Z,5.68
2023-02-03T07:28:57.826Z,4.78
2023-02-03T07:34:06.274Z,3.41
2023-02-03T07:39:15.373Z,3.44
2023-02-03T07:44:23.619Z,3.20
2023-02-03T07:49:31.925Z,3.12
2023-02-03T07:54:40.697Z,2.92
2023-02-03T07:59:52.944Z,2.59
2023-02-03T08:04:51.094Z,3.04
2023-02-03T08:10:00.544Z,2.88
2023-02-03T08:15:08.693Z,2.65
2023-02-03T08:20:17.391Z,2.50
2023-02-03T08:25:26.096Z,2.40
2023-02-03T08:30:34.797Z,2.49
2023-02-03T08:35:43.030Z,2.77
2023-02-03T08:40:52.128Z,2.58
2023-02-03T08:46:00.465Z,2.41
2023-02-03T08:51:09.141Z,2.42
2023-02-03T08:56:17.741Z,2.26
2023-02-03T09:01:26.482Z,2.26
2023-02-03T09:06:35.399Z,2.17
2023-02-03T09:11:43.885Z,1.91
2023-02-03T09:16:52.119Z,2.34
2023-02-03T09:22:01.322Z,2.33
2023-02-03T09:27:09.863Z,2.00
2023-02-03T09:32:19.243Z,2.09
2023-02-03T09:37:27.717Z,2.09
2023-02-03T09:42:36.285Z,2.06
2023-02-03T09:47:44.559Z,2.10
2023-02-03T09:52:53.300Z,2.05
2023-02-03T09:58:01.766Z,2.28
2023-02-03T10:03:10.760Z,2.38
2023-02-03T10:08:19.214Z,2.77
2023-02-03T10:13:27.748Z,2.29
2023-02-03T10:18:36.270Z,2.50
2023-02-03T10:23:44.915Z,2.12
2023-02-03T10:28:53.809Z,2.51
2023-02-03T10:34:02.389Z,2.10
2023-02-03T10:39:11.224Z,2.19
2023-02-03T10:44:19.970Z,2.34
2023-02-03T10:49:28.642Z,2.08
2023-02-03T10:54:37.649Z,2.42
2023-02-03T10:59:46.124Z,2.24
2023-02-03T11:04:55.617Z,2.01
2023-02-03T11:10:04.651Z,2.01
2023-02-03T11:15:13.203Z,1.99
2023-02-03T11:20:21.813Z,1.86
2023-02-03T11:25:31.211Z,1.82
2023-02-03T11:30:39.524Z,1.82
2023-02-03T11:35:48.143Z,2.22
2023-02-03T11:40:56.863Z,2.34
2023-02-03T11:46:06.023Z,2.24
2023-02-03T11:51:14.586Z,2.23
2023-02-03T11:56:23.145Z,2.29
2023-02-03T12:01:31.402Z,1.88
2023-02-03T12:06:40.030Z,1.89
2023-02-03T12:11:48.487Z,1.77
2023-02-03T12:16:57.621Z,1.99
2023-02-03T12:22:06.169Z,2.11
2023-02-03T12:27:14.982Z,2.19
2023-02-03T12:32:23.608Z,2.69
2023-02-03T12:37:32.397Z,2.69
2023-02-03T12:42:40.782Z,2.68
2023-02-03T12:47:50.930Z,2.29
2023-02-03T12:52:58.032Z,2.51
2023-02-03T12:58:07.051Z,2.18
2023-02-03T13:03:15.341Z,2.20
2023-02-03T13:08:24.121Z,2.28
2023-02-03T13:13:33.206Z,2.31
2023-02-03T13:18:44.974Z,2.41
2023-02-03T13:23:43.231Z,2.17
2023-02-03T13:28:53.426Z,2.59
2023-02-03T13:34:00.734Z,2.45
2023-02-03T13:39:09.227Z,2.57
2023-02-03T13:44:17.916Z,2.80
2023-02-03T13:49:27.178Z,3.21
2023-02-03T13:54:35.975Z,3.34
2023-02-03T13:59:45.371Z,3.47
2023-02-03T14:04:54.308Z,3.44
2023-02-03T14:10:02.187Z,3.51
2023-02-03T14:15:10.973Z,3.45
2023-02-03T14:20:19.964Z,3.32
2023-02-03T14:25:28.814Z,3.42
2023-02-03T14:30:37.807Z,3.50
2023-02-03T14:35:46.303Z,3.54
2023-02-03T14:40:55.406Z,3.80
2023-02-03T14:46:03.960Z,4.22
2023-02-03T14:51:12.747Z,3.54
2023-02-03T14:56:21.623Z,3.30
2023-02-03T15:01:30.436Z,2.52
2023-02-03T15:06:38.955Z,2.48
2023-02-03T15:11:47.955Z,2.20
2023-02-03T15:16:56.220Z,2.53
2023-02-03T15:22:05.538Z,1.99
2023-02-03T15:27:14.554Z,2.54
2023-02-03T15:32:23.206Z,2.46
2023-02-03T15:37:31.991Z,2.41
2023-02-03T15:42:40.900Z,2.08
2023-02-03T15:47:49.382Z,1.86
2023-02-03T15:52:58.479Z,1.87
2023-02-03T15:58:06.892Z,1.61
2023-02-03T16:03:15.508Z,1.33
2023-02-03T16:08:23.878Z,1.61
2023-02-03T16:13:33.017Z,1.62
2023-02-03T16:18:42.153Z,1.55
2023-02-03T16:23:51.062Z,1.37
2023-02-03T16:28:59.562Z,1.43
2023-02-03T16:34:09.073Z,1.11
2023-02-03T16:39:17.438Z,1.59
2023-02-03T16:44:26.443Z,1.42
2023-02-03T16:49:35.267Z,1.36
2023-02-03T16:54:44.785Z,1.49
2023-02-03T16:59:53.211Z,1.22
2023-02-03T17:05:03.359Z,1.26
2023-02-03T17:10:01.434Z,1.41
2023-02-03T17:15:10.631Z,1.33
2023-02-03T17:20:19.118Z,1.62
2023-02-03T17:25:28.654Z,1.39
2023-02-03T17:30:36.831Z,1.42
2023-02-03T17:35:46.445Z,1.53
2023-02-03T17:56:00.614Z,1.36
2023-02-03T18:01:09.831Z,1.51
2023-02-03T18:06:19.339Z,1.49
2023-02-03T18:11:28.488Z,1.35
2023-02-03T18:16:39.196Z,1.45
2023-02-03T18:21:37.986Z,1.51
2023-02-03T18:26:47.595Z,1.58
2023-02-03T18:31:57.073Z,1.70
2023-02-03T18:37:05.660Z,1.08
2023-02-03T18:42:15.505Z,1.28
2023-02-03T18:47:25.242Z,1.04
2023-02-03T18:52:34.321Z,1.45
2023-02-03T18:57:43.783Z,1.47
2023-02-03T19:02:53.500Z,1.38
2023-02-03T19:08:02.860Z,1.37
2023-02-03T19:13:12.268Z,1.62
2023-02-03T19:18:21.425Z,1.45
2023-02-03T19:23:29.709Z,1.64
2023-02-03T19:28:38.956Z,2.68
2023-02-03T19:33:48.316Z,3.81
2023-02-03T19:38:57.029Z,2.35
2023-02-03T19:44:06.347Z,2.43
2023-02-03T19:49:15.742Z,1.70
2023-02-03T19:54:24.512Z,2.27
2023-02-03T19:59:33.726Z,1.45
2023-02-03T20:04:43.094Z,1.38
2023-02-03T20:09:52.251Z,1.48
2023-02-03T20:15:00.979Z,1.46
2023-02-03T20:20:10.120Z,1.40
2023-02-03T20:25:19.933Z,1.56
2023-02-03T20:30:29.165Z,1.84
2023-02-03T20:35:37.177Z,2.12
2023-02-03T20:40:46.595Z,1.96
2023-02-03T20:45:55.250Z,2.49
2023-02-03T20:51:04.744Z,2.27
2023-02-03T20:56:13.200Z,2.31
2023-02-03T21:01:22.073Z,2.49
2023-02-03T21:06:30.602Z,2.78
2023-02-03T21:11:40.344Z,2.67
2023-02-03T21:16:49.548Z,3.30
2023-02-03T21:21:58.248Z,3.57
2023-02-03T21:27:06.732Z,2.96
2023-02-03T21:32:15.495Z,3.02
2023-02-03T21:37:23.948Z,3.12
2023-02-03T21:42:32.702Z,3.13
2023-02-03T21:47:41.224Z,2.89
2023-02-03T21:52:50.127Z,2.64
2023-02-03T21:57:58.766Z,3.04
2023-02-03T22:03:07.718Z,3.09
2023-02-03T22:08:16.904Z,3.22
2023-02-03T22:13:25.876Z,3.02
2023-02-03T22:18:34.289Z,2.89
2023-02-03T22:23:43.425Z,2.89
2023-02-03T22:28:51.894Z,2.99
2023-02-03T22:34:00.922Z,3.24
2023-02-03T22:39:09.276Z,3.65
2023-02-03T22:44:18.398Z,3.86
2023-02-03T22:49:26.996Z,4.10
2023-02-03T22:54:36.113Z,4.15
2023-02-03T22:59:44.624Z,4.76
2023-02-03T23:04:53.619Z,4.95
2023-02-03T23:10:02.341Z,5.15
2023-02-03T23:15:11.020Z,4.87
2023-02-03T23:20:19.434Z,4.70
2023-02-03T23:25:28.274Z,4.82
2023-02-03T23:30:36.746Z,4.53
2023-02-03T23:35:45.450Z,4.39
2023-02-03T23:40:53.624Z,5.35
2023-02-03T23:46:02.213Z,4.97
2023-02-03T23:51:10.807Z,4.80
2023-02-03T23:56:19.621Z,4.68
